Westmount, Canada
Current Conditions -  °F | °C
As of 6:00 AM on Monday 22 Dec 2014 (Local Time) from CYUL Reporting Station
Overcast Overcast  
Wind Chill:   Ceiling: 1000
Heat Index: 18°   Visibility: 12mi
Dew Point: 14°   Wind: 9mph
Humidity: 86%   Direction: 20°NNE
Pressure: 30.43"   Gusts: NA
Location:  45.48°N, 73.6°W
Report Text: CYUL 221100Z 02008KT 12SM OVC010 M08/M10 A3043 RMK ST8 SLP306
Loading
Personal Weather Stations






























Interactive Weather Map New forecast layout! Learn more

10-Day Weather Forecast

Advertisements
Track Severe Weather on mobile